sensor_id;sensor_type;location;lat;lon;timestamp;P1;durP1;ratioP1;P2;durP2;ratioP2
33367;SDS011;19724;51.114;13.906;2023-03-31T00:01:25;4.32;;;1.38;;
33367;SDS011;19724;51.114;13.906;2023-03-31T00:03:51;7.05;;;1.75;;
33367;SDS011;19724;51.114;13.906;2023-03-31T00:06:26;5.30;;;2.00;;
33367;SDS011;19724;51.114;13.906;2023-03-31T00:08:52;7.85;;;1.48;;
33367;SDS011;19724;51.114;13.906;2023-03-31T00:11:18;4.32;;;1.55;;
33367;SDS011;19724;51.114;13.906;2023-03-31T00:13:45;7.07;;;1.55;;
33367;SDS011;19724;51.114;13.906;2023-03-31T00:16:11;7.10;;;2.08;;
33367;SDS011;19724;51.114;13.906;2023-03-31T00:18:36;4.25;;;1.75;;
33367;SDS011;19724;51.114;13.906;2023-03-31T00:21:05;4.15;;;1.38;;
33367;SDS011;19724;51.114;13.906;2023-03-31T00:23:32;5.55;;;1.75;;
33367;SDS011;19724;51.114;13.906;2023-03-31T00:25:58;5.55;;;1.52;;
33367;SDS011;19724;51.114;13.906;2023-03-31T00:28:23;5.55;;;2.05;;
33367;SDS011;19724;51.114;13.906;2023-03-31T00:30:49;3.63;;;1.42;;
33367;SDS011;19724;51.114;13.906;2023-03-31T00:33:15;6.63;;;1.80;;
33367;SDS011;19724;51.114;13.906;2023-03-31T00:35:41;3.67;;;1.40;;
33367;SDS011;19724;51.114;13.906;2023-03-31T00:38:07;6.18;;;1.35;;
33367;SDS011;19724;51.114;13.906;2023-03-31T00:40:34;6.53;;;1.50;;
33367;SDS011;19724;51.114;13.906;2023-03-31T00:43:00;7.93;;;2.08;;
33367;SDS011;19724;51.114;13.906;2023-03-31T00:45:28;7.43;;;1.70;;
33367;SDS011;19724;51.114;13.906;2023-03-31T00:50:29;4.43;;;1.33;;
33367;SDS011;19724;51.114;13.906;2023-03-31T00:52:59;11.57;;;1.50;;
33367;SDS011;19724;51.114;13.906;2023-03-31T00:55:33;10.75;;;1.90;;
33367;SDS011;19724;51.114;13.906;2023-03-31T00:58:03;9.17;;;2.03;;
33367;SDS011;19724;51.114;13.906;2023-03-31T01:00:31;7.32;;;1.65;;
33367;SDS011;19724;51.114;13.906;2023-03-31T01:02:57;4.78;;;1.50;;
33367;SDS011;19724;51.114;13.906;2023-03-31T01:05:31;4.03;;;1.50;;
33367;SDS011;19724;51.114;13.906;2023-03-31T01:08:02;8.95;;;2.08;;
33367;SDS011;19724;51.114;13.906;2023-03-31T01:10:29;6.35;;;1.63;;
33367;SDS011;19724;51.114;13.906;2023-03-31T01:13:05;10.15;;;1.83;;
33367;SDS011;19724;51.114;13.906;2023-03-31T01:15:32;5.47;;;2.10;;
33367;SDS011;19724;51.114;13.906;2023-03-31T01:17:57;4.20;;;1.65;;
33367;SDS011;19724;51.114;13.906;2023-03-31T01:34:27;7.25;;;2.58;;
33367;SDS011;19724;51.114;13.906;2023-03-31T01:37:29;7.82;;;1.88;;
33367;SDS011;19724;51.114;13.906;2023-03-31T01:40:04;4.47;;;1.55;;
33367;SDS011;19724;51.114;13.906;2023-03-31T01:45:46;8.65;;;1.80;;
33367;SDS011;19724;51.114;13.906;2023-03-31T01:48:30;6.00;;;1.58;;
33367;SDS011;19724;51.114;13.906;2023-03-31T01:51:15;7.60;;;1.40;;
33367;SDS011;19724;51.114;13.906;2023-03-31T01:54:07;5.93;;;2.40;;
33367;SDS011;19724;51.114;13.906;2023-03-31T01:56:57;7.07;;;1.92;;
33367;SDS011;19724;51.114;13.906;2023-03-31T01:59:39;8.18;;;2.03;;
33367;SDS011;19724;51.114;13.906;2023-03-31T02:02:18;6.13;;;1.63;;
33367;SDS011;19724;51.114;13.906;2023-03-31T02:05:00;7.57;;;1.67;;
33367;SDS011;19724;51.114;13.906;2023-03-31T02:07:42;8.23;;;1.88;;
33367;SDS011;19724;51.114;13.906;2023-03-31T02:10:12;3.50;;;1.10;;
33367;SDS011;19724;51.114;13.906;2023-03-31T02:12:40;6.47;;;1.55;;
33367;SDS011;19724;51.114;13.906;2023-03-31T02:15:08;4.55;;;1.45;;
33367;SDS011;19724;51.114;13.906;2023-03-31T02:17:38;10.80;;;2.05;;
33367;SDS011;19724;51.114;13.906;2023-03-31T02:20:06;5.53;;;1.50;;
33367;SDS011;19724;51.114;13.906;2023-03-31T02:22:37;8.65;;;1.80;;
33367;SDS011;19724;51.114;13.906;2023-03-31T02:25:07;9.55;;;2.00;;
33367;SDS011;19724;51.114;13.906;2023-03-31T02:27:38;6.35;;;1.85;;
33367;SDS011;19724;51.114;13.906;2023-03-31T02:30:07;8.63;;;2.47;;
33367;SDS011;19724;51.114;13.906;2023-03-31T02:32:34;7.63;;;1.73;;
33367;SDS011;19724;51.114;13.906;2023-03-31T02:35:03;7.05;;;1.67;;
33367;SDS011;19724;51.114;13.906;2023-03-31T02:37:30;9.20;;;1.92;;
33367;SDS011;19724;51.114;13.906;2023-03-31T02:39:56;6.82;;;1.80;;
33367;SDS011;19724;51.114;13.906;2023-03-31T02:42:25;5.88;;;2.00;;
33367;SDS011;19724;51.114;13.906;2023-03-31T02:44:51;7.65;;;2.10;;
33367;SDS011;19724;51.114;13.906;2023-03-31T02:47:17;7.30;;;1.65;;
33367;SDS011;19724;51.114;13.906;2023-03-31T02:49:45;7.07;;;2.33;;
33367;SDS011;19724;51.114;13.906;2023-03-31T02:55:14;5.15;;;1.63;;
33367;SDS011;19724;51.114;13.906;2023-03-31T03:03:52;8.80;;;1.58;;
33367;SDS011;19724;51.114;13.906;2023-03-31T03:09:43;6.20;;;1.95;;
33367;SDS011;19724;51.114;13.906;2023-03-31T03:14:59;7.63;;;1.70;;
33367;SDS011;19724;51.114;13.906;2023-03-31T03:17:33;7.97;;;1.55;;
33367;SDS011;19724;51.114;13.906;2023-03-31T03:20:04;7.90;;;2.28;;
33367;SDS011;19724;51.114;13.906;2023-03-31T03:22:32;10.65;;;2.08;;
33367;SDS011;19724;51.114;13.906;2023-03-31T03:24:58;9.65;;;2.10;;
33367;SDS011;19724;51.114;13.906;2023-03-31T03:27:24;9.45;;;2.30;;
33367;SDS011;19724;51.114;13.906;2023-03-31T03:29:50;9.23;;;1.80;;
33367;SDS011;19724;51.114;13.906;2023-03-31T03:32:15;10.77;;;2.00;;
33367;SDS011;19724;51.114;13.906;2023-03-31T03:34:41;6.03;;;1.63;;
33367;SDS011;19724;51.114;13.906;2023-03-31T03:37:07;7.25;;;2.00;;
33367;SDS011;19724;51.114;13.906;2023-03-31T03:39:32;5.70;;;2.00;;
33367;SDS011;19724;51.114;13.906;2023-03-31T03:41:58;8.68;;;2.13;;
33367;SDS011;19724;51.114;13.906;2023-03-31T03:44:23;11.20;;;2.25;;
33367;SDS011;19724;51.114;13.906;2023-03-31T03:46:49;9.57;;;1.88;;
33367;SDS011;19724;51.114;13.906;2023-03-31T03:49:15;9.02;;;3.25;;
33367;SDS011;19724;51.114;13.906;2023-03-31T03:51:40;9.55;;;1.50;;
33367;SDS011;19724;51.114;13.906;2023-03-31T03:54:06;7.60;;;1.60;;
33367;SDS011;19724;51.114;13.906;2023-03-31T03:56:31;6.40;;;1.83;;
33367;SDS011;19724;51.114;13.906;2023-03-31T03:58:57;6.63;;;1.95;;
33367;SDS011;19724;51.114;13.906;2023-03-31T04:01:22;9.45;;;2.20;;
33367;SDS011;19724;51.114;13.906;2023-03-31T04:03:48;11.07;;;3.40;;
33367;SDS011;19724;51.114;13.906;2023-03-31T04:06:13;7.25;;;1.58;;
33367;SDS011;19724;51.114;13.906;2023-03-31T04:08:39;4.85;;;1.65;;
33367;SDS011;19724;51.114;13.906;2023-03-31T04:11:10;11.20;;;3.42;;
33367;SDS011;19724;51.114;13.906;2023-03-31T04:13:38;8.43;;;2.17;;
33367;SDS011;19724;51.114;13.906;2023-03-31T04:16:03;10.13;;;1.98;;
33367;SDS011;19724;51.114;13.906;2023-03-31T04:18:29;12.27;;;2.17;;
33367;SDS011;19724;51.114;13.906;2023-03-31T04:20:55;12.55;;;2.95;;
33367;SDS011;19724;51.114;13.906;2023-03-31T04:23:30;8.02;;;2.05;;
33367;SDS011;19724;51.114;13.906;2023-03-31T04:25:56;8.88;;;2.50;;
33367;SDS011;19724;51.114;13.906;2023-03-31T04:28:21;10.10;;;2.08;;
33367;SDS011;19724;51.114;13.906;2023-03-31T04:30:47;7.85;;;1.80;;
33367;SDS011;19724;51.114;13.906;2023-03-31T04:33:13;4.65;;;1.45;;
33367;SDS011;19724;51.114;13.906;2023-03-31T04:35:39;8.18;;;2.10;;
33367;SDS011;19724;51.114;13.906;2023-03-31T04:38:18;7.95;;;1.88;;
33367;SDS011;19724;51.114;13.906;2023-03-31T04:40:49;9.98;;;2.50;;
33367;SDS011;19724;51.114;13.906;2023-03-31T04:43:16;8.57;;;2.35;;
33367;SDS011;19724;51.114;13.906;2023-03-31T04:45:43;4.38;;;1.70;;
33367;SDS011;19724;51.114;13.906;2023-03-31T04:48:09;7.72;;;3.03;;
33367;SDS011;19724;51.114;13.906;2023-03-31T04:50:34;6.70;;;1.88;;
33367;SDS011;19724;51.114;13.906;2023-03-31T04:53:00;10.82;;;2.20;;
33367;SDS011;19724;51.114;13.906;2023-03-31T04:55:26;11.10;;;2.30;;
33367;SDS011;19724;51.114;13.906;2023-03-31T04:57:52;7.22;;;2.00;;
33367;SDS011;19724;51.114;13.906;2023-03-31T05:00:18;7.90;;;2.33;;
33367;SDS011;19724;51.114;13.906;2023-03-31T05:02:44;8.18;;;2.40;;
33367;SDS011;19724;51.114;13.906;2023-03-31T05:05:10;7.53;;;2.40;;
33367;SDS011;19724;51.114;13.906;2023-03-31T05:07:36;12.02;;;2.78;;
33367;SDS011;19724;51.114;13.906;2023-03-31T05:10:02;6.15;;;2.42;;
33367;SDS011;19724;51.114;13.906;2023-03-31T05:12:28;9.13;;;3.05;;
33367;SDS011;19724;51.114;13.906;2023-03-31T05:14:57;11.13;;;2.90;;
33367;SDS011;19724;51.114;13.906;2023-03-31T05:17:23;8.60;;;2.30;;
33367;SDS011;19724;51.114;13.906;2023-03-31T05:19:48;8.00;;;2.13;;
33367;SDS011;19724;51.114;13.906;2023-03-31T05:22:14;8.90;;;2.58;;
33367;SDS011;19724;51.114;13.906;2023-03-31T05:24:44;19.23;;;3.33;;
33367;SDS011;19724;51.114;13.906;2023-03-31T05:27:09;16.48;;;3.25;;
33367;SDS011;19724;51.114;13.906;2023-03-31T05:29:35;15.63;;;3.58;;
33367;SDS011;19724;51.114;13.906;2023-03-31T05:32:00;18.27;;;3.47;;
33367;SDS011;19724;51.114;13.906;2023-03-31T05:34:26;9.25;;;1.90;;
33367;SDS011;19724;51.114;13.906;2023-03-31T05:36:52;10.80;;;3.35;;
33367;SDS011;19724;51.114;13.906;2023-03-31T05:39:17;10.60;;;2.28;;
33367;SDS011;19724;51.114;13.906;2023-03-31T05:41:43;11.65;;;2.88;;
33367;SDS011;19724;51.114;13.906;2023-03-31T05:44:09;15.10;;;2.65;;
33367;SDS011;19724;51.114;13.906;2023-03-31T05:46:35;8.45;;;2.20;;
33367;SDS011;19724;51.114;13.906;2023-03-31T05:49:00;8.52;;;2.53;;
33367;SDS011;19724;51.114;13.906;2023-03-31T05:51:26;6.93;;;2.35;;
33367;SDS011;19724;51.114;13.906;2023-03-31T05:53:52;8.65;;;2.10;;
33367;SDS011;19724;51.114;13.906;2023-03-31T05:56:17;8.00;;;2.65;;
33367;SDS011;19724;51.114;13.906;2023-03-31T05:58:43;10.15;;;2.95;;
33367;SDS011;19724;51.114;13.906;2023-03-31T06:01:09;11.30;;;2.42;;
33367;SDS011;19724;51.114;13.906;2023-03-31T06:03:37;8.02;;;1.80;;
33367;SDS011;19724;51.114;13.906;2023-03-31T06:06:07;7.28;;;2.35;;
33367;SDS011;19724;51.114;13.906;2023-03-31T06:08:34;7.95;;;2.70;;
33367;SDS011;19724;51.114;13.906;2023-03-31T06:11:05;11.68;;;2.20;;
33367;SDS011;19724;51.114;13.906;2023-03-31T06:13:31;8.35;;;2.08;;
33367;SDS011;19724;51.114;13.906;2023-03-31T06:15:58;10.32;;;2.55;;
33367;SDS011;19724;51.114;13.906;2023-03-31T06:18:25;7.80;;;2.28;;
33367;SDS011;19724;51.114;13.906;2023-03-31T06:20:52;7.70;;;2.10;;
33367;SDS011;19724;51.114;13.906;2023-03-31T06:23:21;8.75;;;2.58;;
33367;SDS011;19724;51.114;13.906;2023-03-31T06:25:47;11.30;;;2.78;;
33367;SDS011;19724;51.114;13.906;2023-03-31T06:28:13;8.05;;;2.10;;
33367;SDS011;19724;51.114;13.906;2023-03-31T06:30:39;7.05;;;2.40;;
33367;SDS011;19724;51.114;13.906;2023-03-31T06:33:05;6.55;;;1.88;;
33367;SDS011;19724;51.114;13.906;2023-03-31T06:35:30;12.95;;;2.75;;
33367;SDS011;19724;51.114;13.906;2023-03-31T06:37:56;6.75;;;2.42;;
33367;SDS011;19724;51.114;13.906;2023-03-31T06:40:21;5.20;;;1.90;;
33367;SDS011;19724;51.114;13.906;2023-03-31T06:42:47;5.30;;;2.22;;
33367;SDS011;19724;51.114;13.906;2023-03-31T06:45:12;5.90;;;2.20;;
33367;SDS011;19724;51.114;13.906;2023-03-31T06:47:38;7.15;;;1.80;;
33367;SDS011;19724;51.114;13.906;2023-03-31T06:50:05;5.85;;;2.10;;
33367;SDS011;19724;51.114;13.906;2023-03-31T06:52:32;6.45;;;2.05;;
33367;SDS011;19724;51.114;13.906;2023-03-31T06:54:58;6.25;;;1.85;;
33367;SDS011;19724;51.114;13.906;2023-03-31T06:57:24;5.25;;;1.55;;
33367;SDS011;19724;51.114;13.906;2023-03-31T06:59:50;8.77;;;2.13;;
33367;SDS011;19724;51.114;13.906;2023-03-31T07:02:16;4.82;;;1.20;;
33367;SDS011;19724;51.114;13.906;2023-03-31T07:04:41;8.35;;;2.55;;
33367;SDS011;19724;51.114;13.906;2023-03-31T07:07:06;11.55;;;3.00;;
33367;SDS011;19724;51.114;13.906;2023-03-31T07:09:32;7.97;;;2.95;;
33367;SDS011;19724;51.114;13.906;2023-03-31T07:11:57;8.68;;;3.42;;
33367;SDS011;19724;51.114;13.906;2023-03-31T07:14:23;9.45;;;3.15;;
33367;SDS011;19724;51.114;13.906;2023-03-31T07:16:48;5.47;;;1.92;;
33367;SDS011;19724;51.114;13.906;2023-03-31T07:19:14;7.03;;;2.17;;
33367;SDS011;19724;51.114;13.906;2023-03-31T07:21:41;6.10;;;2.38;;
33367;SDS011;19724;51.114;13.906;2023-03-31T07:24:06;10.10;;;2.47;;
33367;SDS011;19724;51.114;13.906;2023-03-31T07:26:32;12.82;;;2.63;;
33367;SDS011;19724;51.114;13.906;2023-03-31T07:28:57;6.70;;;1.80;;
33367;SDS011;19724;51.114;13.906;2023-03-31T07:31:23;7.72;;;2.17;;
33367;SDS011;19724;51.114;13.906;2023-03-31T07:33:48;9.95;;;2.35;;
33367;SDS011;19724;51.114;13.906;2023-03-31T07:36:14;6.55;;;2.03;;
33367;SDS011;19724;51.114;13.906;2023-03-31T07:38:41;6.80;;;1.95;;
33367;SDS011;19724;51.114;13.906;2023-03-31T07:41:10;6.50;;;1.92;;
33367;SDS011;19724;51.114;13.906;2023-03-31T07:43:37;7.63;;;2.08;;
33367;SDS011;19724;51.114;13.906;2023-03-31T07:46:02;10.30;;;2.25;;
33367;SDS011;19724;51.114;13.906;2023-03-31T07:48:29;7.95;;;1.85;;
33367;SDS011;19724;51.114;13.906;2023-03-31T07:50:54;10.02;;;2.30;;
33367;SDS011;19724;51.114;13.906;2023-03-31T07:53:20;7.18;;;1.85;;
33367;SDS011;19724;51.114;13.906;2023-03-31T07:55:46;4.63;;;1.20;;
33367;SDS011;19724;51.114;13.906;2023-03-31T07:58:12;7.93;;;2.03;;
33367;SDS011;19724;51.114;13.906;2023-03-31T08:00:37;8.75;;;2.05;;
33367;SDS011;19724;51.114;13.906;2023-03-31T08:03:03;5.47;;;1.67;;
33367;SDS011;19724;51.114;13.906;2023-03-31T08:05:28;8.10;;;2.40;;
33367;SDS011;19724;51.114;13.906;2023-03-31T08:07:54;7.28;;;1.83;;
33367;SDS011;19724;51.114;13.906;2023-03-31T08:10:21;5.22;;;1.63;;
33367;SDS011;19724;51.114;13.906;2023-03-31T08:12:48;5.50;;;1.73;;
33367;SDS011;19724;51.114;13.906;2023-03-31T08:15:14;9.25;;;2.15;;
33367;SDS011;19724;51.114;13.906;2023-03-31T08:17:40;5.07;;;1.90;;
33367;SDS011;19724;51.114;13.906;2023-03-31T08:20:06;11.20;;;2.17;;
33367;SDS011;19724;51.114;13.906;2023-03-31T08:22:32;6.55;;;2.30;;
33367;SDS011;19724;51.114;13.906;2023-03-31T08:24:57;9.20;;;2.70;;
33367;SDS011;19724;51.114;13.906;2023-03-31T08:27:23;6.75;;;2.10;;
33367;SDS011;19724;51.114;13.906;2023-03-31T08:29:50;9.00;;;2.17;;
33367;SDS011;19724;51.114;13.906;2023-03-31T08:32:15;8.10;;;2.25;;
33367;SDS011;19724;51.114;13.906;2023-03-31T08:34:41;8.32;;;2.05;;
33367;SDS011;19724;51.114;13.906;2023-03-31T08:37:06;10.68;;;2.85;;
33367;SDS011;19724;51.114;13.906;2023-03-31T08:39:35;7.50;;;2.40;;
33367;SDS011;19724;51.114;13.906;2023-03-31T08:42:10;9.48;;;2.92;;
33367;SDS011;19724;51.114;13.906;2023-03-31T08:44:49;6.78;;;2.50;;
33367;SDS011;19724;51.114;13.906;2023-03-31T08:47:23;11.30;;;2.35;;
33367;SDS011;19724;51.114;13.906;2023-03-31T08:49:54;12.23;;;2.80;;
33367;SDS011;19724;51.114;13.906;2023-03-31T08:52:28;11.30;;;3.05;;
33367;SDS011;19724;51.114;13.906;2023-03-31T08:55:02;10.48;;;2.75;;
33367;SDS011;19724;51.114;13.906;2023-03-31T08:57:39;6.07;;;2.50;;
33367;SDS011;19724;51.114;13.906;2023-03-31T09:00:28;10.13;;;3.35;;
33367;SDS011;19724;51.114;13.906;2023-03-31T09:03:04;11.73;;;2.83;;
33367;SDS011;19724;51.114;13.906;2023-03-31T09:05:59;14.07;;;3.13;;
33367;SDS011;19724;51.114;13.906;2023-03-31T09:08:34;13.88;;;4.47;;
33367;SDS011;19724;51.114;13.906;2023-03-31T09:11:09;18.40;;;4.72;;
33367;SDS011;19724;51.114;13.906;2023-03-31T09:18:53;19.88;;;5.82;;
33367;SDS011;19724;51.114;13.906;2023-03-31T09:21:30;15.52;;;6.35;;
33367;SDS011;19724;51.114;13.906;2023-03-31T09:24:02;17.92;;;6.90;;
33367;SDS011;19724;51.114;13.906;2023-03-31T09:26:36;14.60;;;6.60;;
33367;SDS011;19724;51.114;13.906;2023-03-31T09:29:12;26.70;;;9.32;;
33367;SDS011;19724;51.114;13.906;2023-03-31T09:31:43;20.70;;;9.90;;
33367;SDS011;19724;51.114;13.906;2023-03-31T09:34:14;23.17;;;9.98;;
33367;SDS011;19724;51.114;13.906;2023-03-31T09:36:43;24.40;;;10.55;;
33367;SDS011;19724;51.114;13.906;2023-03-31T09:39:10;15.40;;;5.97;;
33367;SDS011;19724;51.114;13.906;2023-03-31T09:41:37;17.52;;;5.47;;
33367;SDS011;19724;51.114;13.906;2023-03-31T09:44:12;16.63;;;4.78;;
33367;SDS011;19724;51.114;13.906;2023-03-31T09:46:45;10.63;;;3.38;;
33367;SDS011;19724;51.114;13.906;2023-03-31T09:49:13;10.27;;;3.45;;
33367;SDS011;19724;51.114;13.906;2023-03-31T09:51:43;18.83;;;3.92;;
33367;SDS011;19724;51.114;13.906;2023-03-31T09:54:24;13.98;;;3.47;;
33367;SDS011;19724;51.114;13.906;2023-03-31T09:56:56;13.23;;;3.80;;
33367;SDS011;19724;51.114;13.906;2023-03-31T09:59:23;6.97;;;3.15;;
33367;SDS011;19724;51.114;13.906;2023-03-31T10:01:56;13.30;;;3.60;;
33367;SDS011;19724;51.114;13.906;2023-03-31T10:04:27;16.85;;;4.05;;
33367;SDS011;19724;51.114;13.906;2023-03-31T10:06:54;9.25;;;2.92;;
33367;SDS011;19724;51.114;13.906;2023-03-31T10:09:23;11.35;;;3.88;;
33367;SDS011;19724;51.114;13.906;2023-03-31T10:11:52;7.65;;;3.65;;
33367;SDS011;19724;51.114;13.906;2023-03-31T10:14:24;11.10;;;4.10;;
33367;SDS011;19724;51.114;13.906;2023-03-31T10:16:56;10.40;;;4.22;;
33367;SDS011;19724;51.114;13.906;2023-03-31T10:19:26;9.32;;;3.60;;
33367;SDS011;19724;51.114;13.906;2023-03-31T10:21:58;12.90;;;3.90;;
33367;SDS011;19724;51.114;13.906;2023-03-31T10:24:35;12.05;;;4.50;;
33367;SDS011;19724;51.114;13.906;2023-03-31T10:27:03;11.60;;;4.60;;
33367;SDS011;19724;51.114;13.906;2023-03-31T10:29:30;13.15;;;3.65;;
33367;SDS011;19724;51.114;13.906;2023-03-31T10:32:02;10.30;;;3.97;;
33367;SDS011;19724;51.114;13.906;2023-03-31T10:34:42;8.27;;;3.10;;
33367;SDS011;19724;51.114;13.906;2023-03-31T10:37:10;12.50;;;3.35;;
33367;SDS011;19724;51.114;13.906;2023-03-31T10:39:41;12.98;;;7.55;;
33367;SDS011;19724;51.114;13.906;2023-03-31T10:42:07;16.73;;;10.63;;
33367;SDS011;19724;51.114;13.906;2023-03-31T10:44:37;20.85;;;11.20;;
33367;SDS011;19724;51.114;13.906;2023-03-31T10:47:04;16.88;;;10.45;;
33367;SDS011;19724;51.114;13.906;2023-03-31T10:49:43;12.85;;;9.23;;
33367;SDS011;19724;51.114;13.906;2023-03-31T10:52:14;17.38;;;10.95;;
33367;SDS011;19724;51.114;13.906;2023-03-31T10:54:45;16.00;;;7.30;;
33367;SDS011;19724;51.114;13.906;2023-03-31T10:57:15;26.48;;;16.95;;
33367;SDS011;19724;51.114;13.906;2023-03-31T10:59:46;24.08;;;15.73;;
33367;SDS011;19724;51.114;13.906;2023-03-31T11:02:35;25.90;;;18.95;;
33367;SDS011;19724;51.114;13.906;2023-03-31T11:05:19;21.02;;;13.77;;
33367;SDS011;19724;51.114;13.906;2023-03-31T11:08:42;14.02;;;9.00;;
33367;SDS011;19724;51.114;13.906;2023-03-31T11:11:20;12.52;;;5.97;;
33367;SDS011;19724;51.114;13.906;2023-03-31T11:14:16;9.27;;;5.30;;
33367;SDS011;19724;51.114;13.906;2023-03-31T11:16:59;9.23;;;5.32;;
33367;SDS011;19724;51.114;13.906;2023-03-31T11:24:59;10.13;;;5.78;;
33367;SDS011;19724;51.114;13.906;2023-03-31T11:27:36;9.77;;;5.72;;
33367;SDS011;19724;51.114;13.906;2023-03-31T11:30:21;11.02;;;6.95;;
33367;SDS011;19724;51.114;13.906;2023-03-31T11:33:16;9.88;;;6.40;;
33367;SDS011;19724;51.114;13.906;2023-03-31T11:36:12;6.43;;;5.25;;
33367;SDS011;19724;51.114;13.906;2023-03-31T11:41:58;9.32;;;5.05;;
33367;SDS011;19724;51.114;13.906;2023-03-31T11:44:44;11.00;;;6.57;;
33367;SDS011;19724;51.114;13.906;2023-03-31T11:47:21;9.30;;;6.75;;
33367;SDS011;19724;51.114;13.906;2023-03-31T11:49:58;14.80;;;7.13;;
33367;SDS011;19724;51.114;13.906;2023-03-31T11:52:39;11.40;;;6.95;;
33367;SDS011;19724;51.114;13.906;2023-03-31T11:55:16;12.43;;;7.80;;
33367;SDS011;19724;51.114;13.906;2023-03-31T11:57:59;16.52;;;8.55;;
33367;SDS011;19724;51.114;13.906;2023-03-31T12:00:29;11.10;;;7.60;;
33367;SDS011;19724;51.114;13.906;2023-03-31T12:03:23;10.00;;;6.53;;
33367;SDS011;19724;51.114;13.906;2023-03-31T12:06:02;17.85;;;10.32;;
33367;SDS011;19724;51.114;13.906;2023-03-31T12:08:57;12.15;;;8.82;;
33367;SDS011;19724;51.114;13.906;2023-03-31T12:11:28;15.45;;;9.77;;
33367;SDS011;19724;51.114;13.906;2023-03-31T12:14:07;14.32;;;8.13;;
33367;SDS011;19724;51.114;13.906;2023-03-31T12:16:50;13.18;;;8.27;;
33367;SDS011;19724;51.114;13.906;2023-03-31T12:19:20;18.65;;;10.40;;
33367;SDS011;19724;51.114;13.906;2023-03-31T12:21:54;16.20;;;9.85;;
33367;SDS011;19724;51.114;13.906;2023-03-31T12:24:24;10.55;;;7.72;;
33367;SDS011;19724;51.114;13.906;2023-03-31T12:27:02;12.73;;;8.20;;
33367;SDS011;19724;51.114;13.906;2023-03-31T12:29:37;12.05;;;8.57;;
33367;SDS011;19724;51.114;13.906;2023-03-31T12:32:09;8.48;;;5.63;;
33367;SDS011;19724;51.114;13.906;2023-03-31T12:34:41;11.00;;;6.15;;
33367;SDS011;19724;51.114;13.906;2023-03-31T12:37:19;9.70;;;7.15;;
33367;SDS011;19724;51.114;13.906;2023-03-31T12:39:52;10.90;;;7.05;;
33367;SDS011;19724;51.114;13.906;2023-03-31T12:42:45;11.25;;;8.40;;
33367;SDS011;19724;51.114;13.906;2023-03-31T12:47:55;10.43;;;7.68;;
33367;SDS011;19724;51.114;13.906;2023-03-31T12:50:31;8.98;;;5.78;;
33367;SDS011;19724;51.114;13.906;2023-03-31T12:56:12;12.88;;;7.90;;
33367;SDS011;19724;51.114;13.906;2023-03-31T12:58:42;9.32;;;6.25;;
33367;SDS011;19724;51.114;13.906;2023-03-31T13:01:30;8.65;;;5.97;;
33367;SDS011;19724;51.114;13.906;2023-03-31T13:04:28;13.10;;;8.52;;
33367;SDS011;19724;51.114;13.906;2023-03-31T13:06:51;11.98;;;7.60;;
33367;SDS011;19724;51.114;13.906;2023-03-31T13:11:46;23.50;;;12.48;;
33367;SDS011;19724;51.114;13.906;2023-03-31T13:14:15;15.27;;;9.63;;
33367;SDS011;19724;51.114;13.906;2023-03-31T13:16:46;14.65;;;8.40;;
33367;SDS011;19724;51.114;13.906;2023-03-31T13:19:25;14.40;;;9.85;;
33367;SDS011;19724;51.114;13.906;2023-03-31T13:24:20;18.55;;;12.35;;
33367;SDS011;19724;51.114;13.906;2023-03-31T13:26:47;17.42;;;11.75;;
33367;SDS011;19724;51.114;13.906;2023-03-31T13:37:10;24.10;;;16.63;;
33367;SDS011;19724;51.114;13.906;2023-03-31T13:39:55;31.85;;;18.27;;
33367;SDS011;19724;51.114;13.906;2023-03-31T13:48:23;23.95;;;15.85;;
33367;SDS011;19724;51.114;13.906;2023-03-31T13:51:14;24.80;;;18.45;;
33367;SDS011;19724;51.114;13.906;2023-03-31T13:54:03;35.72;;;18.85;;
33367;SDS011;19724;51.114;13.906;2023-03-31T13:57:03;28.30;;;18.65;;
33367;SDS011;19724;51.114;13.906;2023-03-31T14:05:27;17.17;;;12.88;;
33367;SDS011;19724;51.114;13.906;2023-03-31T14:10:44;9.32;;;8.10;;
33367;SDS011;19724;51.114;13.906;2023-03-31T14:13:10;10.32;;;6.88;;
33367;SDS011;19724;51.114;13.906;2023-03-31T14:15:40;9.98;;;6.80;;
33367;SDS011;19724;51.114;13.906;2023-03-31T14:18:14;11.60;;;8.40;;
33367;SDS011;19724;51.114;13.906;2023-03-31T14:37:37;6.47;;;3.30;;
33367;SDS011;19724;51.114;13.906;2023-03-31T14:40:04;7.55;;;3.08;;
33367;SDS011;19724;51.114;13.906;2023-03-31T14:42:36;8.68;;;3.42;;
33367;SDS011;19724;51.114;13.906;2023-03-31T14:45:05;5.43;;;3.40;;
33367;SDS011;19724;51.114;13.906;2023-03-31T14:47:40;6.43;;;3.58;;
33367;SDS011;19724;51.114;13.906;2023-03-31T14:50:15;6.85;;;3.05;;
33367;SDS011;19724;51.114;13.906;2023-03-31T14:53:00;6.28;;;3.05;;
33367;SDS011;19724;51.114;13.906;2023-03-31T14:55:27;6.43;;;2.60;;
33367;SDS011;19724;51.114;13.906;2023-03-31T14:57:55;5.13;;;2.30;;
33367;SDS011;19724;51.114;13.906;2023-03-31T15:00:25;4.28;;;2.20;;
33367;SDS011;19724;51.114;13.906;2023-03-31T15:02:54;6.05;;;3.15;;
33367;SDS011;19724;51.114;13.906;2023-03-31T15:05:25;7.80;;;2.78;;
33367;SDS011;19724;51.114;13.906;2023-03-31T15:10:48;4.95;;;2.40;;
33367;SDS011;19724;51.114;13.906;2023-03-31T15:13:25;5.53;;;2.60;;
33367;SDS011;19724;51.114;13.906;2023-03-31T15:19:21;5.20;;;2.00;;
33367;SDS011;19724;51.114;13.906;2023-03-31T15:21:58;6.07;;;2.28;;
33367;SDS011;19724;51.114;13.906;2023-03-31T15:24:35;3.42;;;1.60;;
33367;SDS011;19724;51.114;13.906;2023-03-31T15:27:02;2.92;;;1.65;;
33367;SDS011;19724;51.114;13.906;2023-03-31T15:32:02;3.40;;;1.33;;
33367;SDS011;19724;51.114;13.906;2023-03-31T15:34:35;7.20;;;2.33;;
33367;SDS011;19724;51.114;13.906;2023-03-31T15:37:01;2.88;;;1.73;;
33367;SDS011;19724;51.114;13.906;2023-03-31T15:39:29;3.42;;;1.95;;
33367;SDS011;19724;51.114;13.906;2023-03-31T15:41:56;8.05;;;3.47;;
33367;SDS011;19724;51.114;13.906;2023-03-31T15:44:37;5.13;;;1.58;;
33367;SDS011;19724;51.114;13.906;2023-03-31T15:47:20;5.10;;;1.83;;
33367;SDS011;19724;51.114;13.906;2023-03-31T15:49:53;3.50;;;1.35;;
33367;SDS011;19724;51.114;13.906;2023-03-31T15:52:35;4.82;;;1.73;;
33367;SDS011;19724;51.114;13.906;2023-03-31T15:58:16;3.47;;;1.58;;
33367;SDS011;19724;51.114;13.906;2023-03-31T16:00:42;3.33;;;1.90;;
33367;SDS011;19724;51.114;13.906;2023-03-31T16:03:12;3.72;;;1.38;;
33367;SDS011;19724;51.114;13.906;2023-03-31T16:05:54;3.20;;;1.42;;
33367;SDS011;19724;51.114;13.906;2023-03-31T16:08:30;4.90;;;1.95;;
33367;SDS011;19724;51.114;13.906;2023-03-31T16:11:10;2.65;;;1.60;;
33367;SDS011;19724;51.114;13.906;2023-03-31T16:13:40;6.07;;;1.90;;
33367;SDS011;19724;51.114;13.906;2023-03-31T16:16:11;4.43;;;2.00;;
33367;SDS011;19724;51.114;13.906;2023-03-31T16:18:44;3.17;;;1.75;;
33367;SDS011;19724;51.114;13.906;2023-03-31T16:21:17;5.63;;;2.00;;
33367;SDS011;19724;51.114;13.906;2023-03-31T16:23:49;8.95;;;3.05;;
33367;SDS011;19724;51.114;13.906;2023-03-31T16:26:20;6.97;;;3.17;;
33367;SDS011;19724;51.114;13.906;2023-03-31T16:28:51;3.88;;;2.00;;
33367;SDS011;19724;51.114;13.906;2023-03-31T16:31:26;3.15;;;1.92;;
33367;SDS011;19724;51.114;13.906;2023-03-31T16:33:58;4.85;;;2.03;;
33367;SDS011;19724;51.114;13.906;2023-03-31T16:36:25;4.18;;;1.95;;
33367;SDS011;19724;51.114;13.906;2023-03-31T16:38:51;5.20;;;2.03;;
33367;SDS011;19724;51.114;13.906;2023-03-31T16:41:20;6.90;;;3.00;;